createdAt,value
2022-10-17T00:01:45.969Z,2.80
2022-10-17T00:06:50.195Z,3.20
2022-10-17T00:11:52.944Z,2.97
2022-10-17T00:16:55.985Z,3.00
2022-10-17T00:22:10.007Z,3.53
2022-10-17T00:27:14.013Z,2.60
2022-10-17T00:32:16.798Z,2.70
2022-10-17T00:37:21.136Z,2.55
2022-10-17T00:42:25.260Z,2.50
2022-10-17T00:47:29.381Z,3.15
2022-10-17T00:52:33.777Z,2.97
2022-10-17T00:57:36.741Z,2.75
2022-10-17T01:02:39.891Z,2.73
2022-10-17T01:07:44.138Z,2.67
2022-10-17T01:12:53.738Z,2.88
2022-10-17T01:18:01.776Z,3.25
2022-10-17T01:23:15.168Z,2.63
2022-10-17T01:28:27.660Z,2.80
2022-10-17T01:33:41.447Z,3.13
2022-10-17T01:38:47.227Z,2.28
2022-10-17T01:43:53.515Z,2.78
2022-10-17T01:48:58.878Z,2.20
2022-10-17T01:54:03.809Z,2.45
2022-10-17T01:59:08.605Z,2.65
2022-10-17T02:04:13.084Z,2.13
2022-10-17T02:09:20.085Z,2.10
2022-10-17T02:14:26.781Z,2.30
2022-10-17T02:19:42.184Z,2.00
2022-10-17T02:24:48.191Z,1.98
2022-10-17T02:29:55.439Z,1.98
2022-10-17T02:35:01.967Z,2.20
2022-10-17T02:40:05.747Z,2.30
2022-10-17T02:45:09.267Z,1.95
2022-10-17T02:50:13.560Z,1.88
2022-10-17T02:55:19.088Z,2.30
2022-10-17T03:00:23.919Z,2.05
2022-10-17T03:05:28.648Z,2.20
2022-10-17T03:10:31.477Z,2.08
2022-10-17T03:15:34.286Z,2.55
2022-10-17T03:20:38.567Z,2.35
2022-10-17T03:25:41.377Z,2.17
2022-10-17T03:30:44.154Z,2.28
2022-10-17T03:40:57.486Z,2.60
2022-10-17T03:46:01.166Z,2.50
2022-10-17T03:51:06.241Z,2.38
2022-10-17T03:56:13.986Z,2.90
2022-10-17T04:01:18.361Z,2.47
2022-10-17T04:11:25.129Z,2.15
2022-10-17T04:16:28.281Z,2.70
2022-10-17T04:21:31.095Z,2.17
2022-10-17T04:26:35.285Z,2.55
2022-10-17T04:31:38.034Z,2.50
2022-10-17T04:36:40.906Z,2.35
2022-10-17T04:41:45.156Z,2.50
2022-10-17T04:46:47.934Z,2.55
2022-10-17T04:51:50.763Z,2.53
2022-10-17T04:56:54.879Z,2.45
2022-10-17T05:01:57.837Z,2.60
2022-10-17T05:07:00.625Z,2.78
2022-10-17T05:12:06.782Z,2.85
2022-10-17T05:17:12.435Z,2.88
2022-10-17T05:22:15.186Z,3.03
2022-10-17T05:27:19.540Z,2.80
2022-10-17T05:32:22.296Z,3.08
2022-10-17T05:37:25.300Z,2.90
2022-10-17T05:42:29.965Z,2.70
2022-10-17T05:47:33.231Z,5.40
2022-10-17T05:52:36.321Z,3.15
2022-10-17T05:57:40.416Z,2.77
2022-10-17T06:02:43.195Z,3.08
2022-10-17T06:07:45.923Z,3.10
2022-10-17T06:12:50.403Z,3.95
2022-10-17T06:17:53.450Z,3.08
2022-10-17T06:22:56.564Z,2.90
2022-10-17T06:28:00.706Z,3.10
2022-10-17T06:33:05.508Z,3.25
2022-10-17T06:38:08.377Z,2.60
2022-10-17T06:43:12.639Z,3.43
2022-10-17T06:48:16.315Z,2.95
2022-10-17T06:53:19.200Z,3.00
2022-10-17T06:58:23.572Z,2.58
2022-10-17T07:03:26.578Z,3.40
2022-10-17T07:08:30.547Z,3.30
2022-10-17T07:13:38.931Z,3.85
2022-10-17T07:18:42.811Z,3.42
2022-10-17T07:23:45.779Z,4.25
2022-10-17T07:28:52.988Z,4.13
2022-10-17T07:33:56.529Z,3.88
2022-10-17T07:38:59.450Z,3.50
2022-10-17T07:44:03.427Z,3.70
2022-10-17T07:49:06.132Z,3.90
2022-10-17T07:54:08.917Z,3.97
2022-10-17T07:59:12.970Z,3.67
2022-10-17T08:04:16.807Z,3.85
2022-10-17T08:09:20.370Z,3.60
2022-10-17T08:14:24.541Z,3.40
2022-10-17T08:19:27.169Z,3.90
2022-10-17T08:24:30.503Z,3.60
2022-10-17T08:29:34.559Z,3.08
2022-10-17T08:34:37.876Z,3.45
2022-10-17T08:39:40.681Z,3.42
2022-10-17T08:44:50.784Z,3.90
2022-10-17T08:49:55.923Z,3.10
2022-10-17T08:54:59.681Z,3.55
2022-10-17T09:00:03.960Z,3.38
2022-10-17T09:05:23.965Z,2.90
2022-10-17T09:10:34.246Z,3.40
2022-10-17T09:15:44.400Z,3.25
2022-10-17T09:20:48.693Z,4.95
2022-10-17T09:25:53.946Z,3.10
2022-10-17T09:31:01.034Z,3.47
2022-10-17T09:36:05.491Z,3.50
2022-10-17T09:41:39.413Z,3.47
2022-10-17T09:46:39.233Z,3.08
2022-10-17T09:51:42.075Z,3.00
2022-10-17T09:56:58.145Z,3.38
2022-10-17T10:02:10.190Z,3.30
2022-10-17T10:07:13.308Z,3.70
2022-10-17T10:12:19.071Z,3.72
2022-10-17T10:17:31.206Z,3.15
2022-10-17T10:22:33.859Z,3.25
2022-10-17T10:27:36.747Z,3.47
2022-10-17T10:32:41.001Z,3.20
2022-10-17T10:37:44.737Z,3.10
2022-10-17T10:42:48.773Z,3.53
2022-10-17T10:47:53.923Z,3.38
2022-10-17T10:53:09.709Z,3.28
2022-10-17T10:58:22.886Z,3.38
2022-10-17T11:03:30.117Z,2.83
2022-10-17T11:08:36.636Z,3.47
2022-10-17T11:13:41.994Z,3.28
2022-10-17T11:18:48.399Z,3.25
2022-10-17T11:23:54.757Z,3.35
2022-10-17T11:28:58.462Z,3.60
2022-10-17T11:34:04.518Z,3.30
2022-10-17T11:39:09.623Z,3.30
2022-10-17T11:44:16.922Z,3.35
2022-10-17T11:49:23.972Z,3.22
2022-10-17T11:54:29.959Z,3.65
2022-10-17T11:59:44.035Z,3.28
2022-10-17T12:04:51.807Z,3.33
2022-10-17T12:09:58.825Z,2.90
2022-10-17T12:15:19.450Z,2.80
2022-10-17T12:20:43.189Z,3.05
2022-10-17T12:25:51.431Z,2.90
2022-10-17T12:30:58.681Z,2.97
2022-10-17T12:36:21.168Z,3.13
2022-10-17T12:41:53.881Z,2.50
2022-10-17T12:47:00.639Z,2.58
2022-10-17T12:52:07.948Z,2.53
2022-10-17T12:57:18.552Z,2.55
2022-10-17T13:02:22.868Z,2.65
2022-10-17T13:07:30.024Z,2.67
2022-10-17T13:12:41.199Z,2.33
2022-10-17T13:17:45.430Z,2.50
2022-10-17T13:22:48.613Z,2.10
2022-10-17T13:28:05.538Z,2.25
2022-10-17T13:33:19.720Z,2.45
2022-10-17T13:38:24.448Z,2.20
2022-10-17T13:43:28.779Z,3.35
2022-10-17T13:48:32.605Z,3.00
2022-10-17T13:53:36.175Z,2.88
2022-10-17T13:58:43.004Z,2.50
2022-10-17T14:03:49.009Z,2.10
2022-10-17T14:08:58.940Z,2.47
2022-10-17T14:14:04.111Z,1.63
2022-10-17T14:19:07.614Z,2.08
2022-10-17T14:24:14.730Z,2.00
2022-10-17T14:29:30.409Z,1.90
2022-10-17T14:34:34.868Z,1.77
2022-10-17T14:39:37.754Z,2.05
2022-10-17T14:44:42.117Z,1.75
2022-10-17T14:49:45.038Z,1.58
2022-10-17T14:54:50.059Z,2.20
2022-10-17T14:59:55.332Z,2.25
2022-10-17T15:05:03.203Z,1.63
2022-10-17T15:10:06.621Z,2.50
2022-10-17T15:15:19.213Z,2.30
2022-10-17T15:20:26.191Z,1.90
2022-10-17T15:25:29.519Z,2.00
2022-10-17T15:30:36.472Z,1.80
2022-10-17T15:35:39.267Z,1.70
2022-10-17T15:40:42.401Z,1.80
2022-10-17T15:45:47.546Z,1.70
2022-10-17T15:50:50.701Z,1.90
2022-10-17T15:55:53.698Z,1.85
2022-10-17T16:00:57.884Z,1.90
2022-10-17T16:06:01.216Z,2.10
2022-10-17T16:11:04.552Z,2.05
2022-10-17T16:16:10.416Z,2.20
2022-10-17T16:21:13.843Z,2.10
2022-10-17T16:26:16.439Z,2.10
2022-10-17T16:31:22.137Z,2.45
2022-10-17T16:36:25.510Z,2.85
2022-10-17T16:41:29.545Z,2.55
2022-10-17T16:46:35.219Z,3.00
2022-10-17T16:51:38.622Z,2.70
2022-10-17T16:56:42.313Z,3.88
2022-10-17T17:01:46.551Z,3.30
2022-10-17T17:06:49.766Z,2.70
2022-10-17T17:11:52.727Z,2.60
2022-10-17T17:16:57.234Z,2.75
2022-10-17T17:21:59.997Z,2.97
2022-10-17T17:27:02.607Z,2.88
2022-10-17T17:32:06.836Z,3.00
2022-10-17T17:37:09.783Z,2.80
2022-10-17T17:42:12.467Z,3.25
2022-10-17T17:47:16.696Z,3.77
2022-10-17T17:52:19.794Z,3.65
2022-10-17T17:57:22.953Z,4.03
2022-10-17T18:02:27.067Z,5.03
2022-10-17T18:07:30.488Z,5.45
2022-10-17T18:12:34.553Z,6.43
2022-10-17T18:17:38.855Z,10.38
2022-10-17T18:22:41.555Z,7.18
2022-10-17T18:27:44.465Z,8.60
2022-10-17T18:32:51.771Z,21.30
2022-10-17T18:37:56.798Z,14.25
2022-10-17T18:42:59.876Z,6.28
2022-10-17T18:48:04.782Z,9.05
2022-10-17T18:53:07.567Z,21.00
2022-10-17T18:58:12.327Z,7.40
2022-10-17T19:03:19.692Z,9.80
2022-10-17T19:08:22.402Z,8.13
2022-10-17T19:13:25.186Z,7.93
2022-10-17T19:18:29.272Z,7.53
2022-10-17T19:23:32.155Z,7.22
2022-10-17T19:28:35.391Z,6.03
2022-10-17T19:33:42.677Z,11.05
2022-10-17T19:38:45.447Z,9.43
2022-10-17T19:43:48.521Z,22.50
2022-10-17T19:48:53.193Z,17.17
2022-10-17T19:53:56.730Z,24.35
2022-10-17T19:59:00.144Z,11.77
2022-10-17T20:04:04.496Z,6.93
2022-10-17T20:09:09.908Z,6.60
2022-10-17T20:14:15.727Z,12.55
2022-10-17T20:19:20.182Z,7.30
2022-10-17T20:24:22.948Z,7.80
2022-10-17T20:29:27.983Z,12.07
2022-10-17T20:34:35.544Z,7.88
2022-10-17T20:39:39.951Z,8.75
2022-10-17T20:44:42.684Z,7.68
2022-10-17T20:49:51.973Z,9.38
2022-10-17T20:54:55.551Z,6.55
2022-10-17T20:59:58.583Z,12.82
2022-10-17T21:05:02.672Z,5.97
2022-10-17T21:10:34.250Z,8.48
2022-10-17T21:15:33.937Z,6.15
2022-10-17T21:20:38.329Z,5.65
2022-10-17T21:25:41.155Z,5.90
2022-10-17T21:30:44.342Z,6.37
2022-10-17T21:35:49.087Z,5.88
2022-10-17T21:40:55.327Z,6.65
2022-10-17T21:46:02.738Z,5.68
2022-10-17T21:51:08.691Z,6.25
2022-10-17T21:56:12.719Z,5.57
2022-10-17T22:01:16.899Z,5.22
2022-10-17T22:11:46.422Z,4.70
2022-10-17T22:16:50.462Z,5.47
2022-10-17T22:21:55.241Z,12.20
2022-10-17T22:26:58.424Z,7.35
2022-10-17T22:32:01.342Z,5.00
2022-10-17T22:37:05.995Z,4.77
2022-10-17T22:42:09.036Z,4.65
2022-10-17T22:47:12.326Z,5.30
2022-10-17T22:52:16.763Z,4.85
2022-10-17T22:57:19.959Z,5.03
2022-10-17T23:02:23.347Z,7.07
2022-10-17T23:07:27.893Z,6.65
2022-10-17T23:12:32.403Z,5.05
2022-10-17T23:17:35.648Z,8.57
2022-10-17T23:22:40.028Z,5.13
2022-10-17T23:27:43.052Z,5.40
2022-10-17T23:32:46.237Z,4.93
2022-10-17T23:37:50.985Z,4.78
2022-10-17T23:42:54.577Z,4.85
2022-10-17T23:47:58.023Z,5.63
2022-10-17T23:53:03.174Z,4.72
2022-10-17T23:58:06.380Z,4.70
